Time;durP1;ratioP1;P1;durP2;ratioP2;P2;SDS_P1;SDS_P2;PMS_P1;PMS_P2;Temp;Humidity;BMP_temperature;BMP_pressure;BME280_temperature;BME280_humidity;BME280_pressure;Samples;Min_cycle;Max_cycle;Signal;HPM_P1;HPM_P2
2021/04/09 00:00:56;;;;;;;10.37;8.90;;;;;18.00;100623.00;;;;2076860;28;20312;-44
2021/04/09 00:01:57;;;;;;;9.13;8.20;;;;;18.10;100616.00;;;;2076818;28;20223;-43
2021/04/09 00:02:57;;;;;;;9.73;8.73;;;;;18.10;100614.00;;;;2077315;28;20665;-44
2021/04/09 00:03:58;;;;;;;8.60;7.80;;;;;18.10;100609.00;;;;2075297;28;20212;-44
2021/04/09 00:04:58;;;;;;;9.00;8.10;;;;;18.00;100615.00;;;;2078251;28;20649;-42
2021/04/09 00:05:58;;;;;;;9.43;8.53;;;;;18.00;100614.00;;;;2079730;28;20585;-42
2021/04/09 00:06:59;;;;;;;9.33;7.80;;;;;18.00;100609.00;;;;2080404;28;20695;-43
2021/04/09 00:08:01;;;;;;;9.40;8.40;;;;;18.00;100611.00;;;;2079137;28;20287;-45
2021/04/09 00:09:01;;;;;;;8.05;7.25;;;;;18.00;100602.00;;;;2073423;28;20640;-43
2021/04/09 00:10:03;;;;;;;10.43;8.33;;;;;18.00;100604.00;;;;2069981;28;20217;-47
2021/04/09 00:11:04;;;;;;;9.02;8.00;;;;;18.00;100609.00;;;;2073750;28;20225;-47
2021/04/09 00:12:04;;;;;;;8.27;7.47;;;;;18.00;100605.00;;;;2073803;28;20214;-43
2021/04/09 00:13:06;;;;;;;8.93;7.83;;;;;18.00;100607.00;;;;2073319;28;20362;-42
2021/04/09 00:14:08;;;;;;;8.40;7.50;;;;;18.00;100607.00;;;;2073324;28;20244;-48
2021/04/09 00:15:10;;;;;;;8.60;7.80;;;;;18.00;100605.00;;;;2073983;28;20214;-43
2021/04/09 00:16:10;;;;;;;8.57;7.78;;;;;18.00;100601.00;;;;2073691;28;20589;-43
2021/04/09 00:17:11;;;;;;;8.53;7.73;;;;;18.00;100596.00;;;;2072269;28;20317;-42
2021/04/09 00:18:11;;;;;;;8.47;7.57;;;;;18.00;100588.00;;;;2074069;28;20234;-43
2021/04/09 00:19:13;;;;;;;10.00;7.60;;;;;18.00;100592.00;;;;2070647;28;20244;-43
2021/04/09 00:20:18;;;;;;;7.95;7.25;;;;;18.00;100590.00;;;;2074013;28;20243;-45
2021/04/09 00:21:19;;;;;;;8.20;7.05;;;;;18.00;100582.00;;;;2073884;28;20301;-45
2021/04/09 00:22:19;;;;;;;7.90;6.80;;;;;17.90;100594.00;;;;2069730;28;20214;-45
2021/04/09 00:23:20;;;;;;;7.90;7.10;;;;;17.90;100591.00;;;;2072128;28;20223;-42
2021/04/09 00:24:20;;;;;;;9.67;8.67;;;;;17.80;100582.00;;;;2073266;28;20216;-44
2021/04/09 00:25:22;;;;;;;9.97;8.30;;;;;17.80;100581.00;;;;2074033;28;20286;-43
2021/04/09 00:26:22;;;;;;;7.90;7.10;;;;;17.80;100578.00;;;;2074309;28;20225;-46
2021/04/09 00:27:22;;;;;;;9.70;8.37;;;;;17.80;100577.00;;;;2073790;28;20304;-45
2021/04/09 00:28:23;;;;;;;11.47;7.60;;;;;17.80;100581.00;;;;2073564;28;20260;-43
2021/04/09 00:29:23;;;;;;;8.23;7.40;;;;;17.80;100574.00;;;;2073233;28;20844;-44
2021/04/09 00:30:27;;;;;;;9.07;6.67;;;;;17.80;100577.00;;;;2072603;28;20601;-46
2021/04/09 00:31:27;;;;;;;8.32;7.20;;;;;17.90;100581.00;;;;2074192;28;20252;-43
2021/04/09 00:32:28;;;;;;;8.93;7.47;;;;;17.90;100579.00;;;;2076989;28;20216;-42
2021/04/09 00:33:28;;;;;;;9.50;7.20;;;;;17.90;100574.00;;;;2074520;28;20306;-44
2021/04/09 00:34:29;;;;;;;7.23;6.50;;;;;17.90;100574.00;;;;2072863;28;20205;-44
2021/04/09 00:35:29;;;;;;;7.70;6.90;;;;;17.80;100573.00;;;;2068763;28;20276;-42
2021/04/09 00:36:29;;;;;;;8.43;6.93;;;;;17.80;100568.00;;;;2077238;28;20226;-47
2021/04/09 00:37:30;;;;;;;7.80;7.10;;;;;17.90;100580.00;;;;2074616;28;20217;-41
2021/04/09 00:38:30;;;;;;;7.97;7.17;;;;;17.90;100570.00;;;;2074338;28;20231;-44
2021/04/09 00:39:30;;;;;;;7.03;6.40;;;;;17.90;100565.00;;;;2074132;28;20303;-45
2021/04/09 00:40:31;;;;;;;7.43;6.73;;;;;17.90;100576.00;;;;2073815;28;20295;-43
2021/04/09 00:41:31;;;;;;;7.60;6.80;;;;;17.90;100577.00;;;;2073071;28;20220;-42
2021/04/09 00:42:31;;;;;;;7.27;6.53;;;;;17.90;100570.00;;;;2069644;28;20252;-44
2021/04/09 00:43:32;;;;;;;7.57;6.03;;;;;17.90;100572.00;;;;2075593;28;20674;-45
2021/04/09 00:44:32;;;;;;;7.37;6.60;;;;;17.90;100591.00;;;;2066838;28;20217;-43
2021/04/09 00:45:36;;;;;;;10.17;6.40;;;;;17.80;100577.00;;;;2076453;28;20303;-46
2021/04/09 00:46:37;;;;;;;11.85;7.15;;;;;17.90;100566.00;;;;2075124;28;20218;-45
2021/04/09 00:47:37;;;;;;;6.47;5.87;;;;;17.80;100568.00;;;;2073926;28;20226;-42
2021/04/09 00:48:37;;;;;;;7.50;6.10;;;;;17.80;100568.00;;;;2069247;28;20234;-43
2021/04/09 00:49:38;;;;;;;7.10;6.37;;;;;17.80;100567.00;;;;2065502;28;20588;-42
2021/04/09 00:50:38;;;;;;;7.10;5.93;;;;;17.80;100559.00;;;;2069321;28;20221;-44
2021/04/09 00:51:39;;;;;;;9.20;6.60;;;;;17.80;100562.00;;;;2075105;28;20224;-46
2021/04/09 00:52:39;;;;;;;7.23;6.53;;;;;17.80;100559.00;;;;2077741;28;20757;-43
2021/04/09 00:53:43;;;;;;;7.73;6.93;;;;;17.80;100559.00;;;;2072350;28;20591;-42
2021/04/09 00:54:43;;;;;;;8.23;6.28;;;;;17.80;100555.00;;;;2071125;28;20281;-43
2021/04/09 00:55:44;;;;;;;7.47;6.77;;;;;17.80;100561.00;;;;2076142;28;20248;-42
2021/04/09 00:56:44;;;;;;;7.17;6.47;;;;;17.80;100561.00;;;;2064371;28;20314;-43
2021/04/09 00:57:44;;;;;;;6.90;6.30;;;;;17.80;100542.00;;;;2073817;28;20375;-43
2021/04/09 00:58:45;;;;;;;7.70;6.60;;;;;17.80;100562.00;;;;2063675;28;20322;-47
2021/04/09 00:59:45;;;;;;;10.43;7.17;;;;;17.80;100554.00;;;;2069953;28;20719;-44
2021/04/09 01:00:46;;;;;;;8.77;6.80;;;;;17.80;100564.00;;;;2075694;28;20679;-43
2021/04/09 01:01:46;;;;;;;6.70;5.90;;;;;17.70;100559.00;;;;2074437;28;20613;-43
2021/04/09 01:02:47;;;;;;;7.07;5.90;;;;;17.70;100560.00;;;;2074728;28;20315;-42
2021/04/09 01:03:47;;;;;;;7.97;6.67;;;;;17.70;100563.00;;;;2077496;28;20440;-44
2021/04/09 01:04:48;;;;;;;6.83;6.17;;;;;17.70;100556.00;;;;2074748;28;20297;-44
2021/04/09 01:05:49;;;;;;;7.97;6.63;;;;;17.70;100555.00;;;;2068317;28;20771;-43
2021/04/09 01:06:49;;;;;;;6.60;6.00;;;;;17.70;100554.00;;;;2068647;28;20210;-43
2021/04/09 01:07:50;;;;;;;8.23;5.90;;;;;17.70;100562.00;;;;2079854;28;20716;-47
2021/04/09 01:08:50;;;;;;;7.40;6.70;;;;;17.70;100556.00;;;;2075017;28;20209;-42
2021/04/09 01:09:51;;;;;;;6.13;5.57;;;;;17.70;100554.00;;;;2068347;28;20330;-43
2021/04/09 01:10:51;;;;;;;7.20;6.00;;;;;17.70;100555.00;;;;2074638;28;20213;-45
2021/04/09 01:11:52;;;;;;;6.57;5.97;;;;;17.70;100550.00;;;;2070546;28;20711;-45
2021/04/09 01:12:52;;;;;;;6.47;5.80;;;;;17.70;100560.00;;;;2077016;28;20637;-44
2021/04/09 01:13:52;;;;;;;6.57;5.63;;;;;17.70;100556.00;;;;2070162;28;20580;-42
2021/04/09 01:14:53;;;;;;;6.37;5.87;;;;;17.70;100555.00;;;;2074430;28;20288;-48
2021/04/09 01:15:53;;;;;;;7.20;6.00;;;;;17.70;100564.00;;;;2075140;28;20245;-44
2021/04/09 01:16:59;;;;;;;7.30;5.80;;;;;17.70;100556.00;;;;2074315;28;20344;-46
2021/04/09 01:18:21;;;;;;;6.65;6.00;;;;;17.70;100543.00;;;;2066759;28;20214;-46
2021/04/09 01:19:58;;;;;;;6.32;5.30;;;;;17.70;100551.00;;;;2065872;28;20218;-44
2021/04/09 01:21:29;;;;;;;6.40;5.78;;;;;17.70;100544.00;;;;2074400;28;20257;-43
2021/04/09 01:22:33;;;;;;;7.30;6.03;;;;;17.70;100551.00;;;;2073522;28;20221;-44
2021/04/09 01:24:07;;;;;;;6.40;5.72;;;;;17.70;100541.00;;;;2065071;28;20766;-44
2021/04/09 01:25:19;;;;;;;6.65;5.95;;;;;17.60;100547.00;;;;2071223;28;20232;-42
2021/04/09 01:26:53;;;;;;;6.30;5.68;;;;;17.60;100546.00;;;;2069544;28;20224;-42
2021/04/09 01:28:03;;;;;;;6.07;5.47;;;;;17.60;100550.00;;;;2071235;28;20282;-43
2021/04/09 01:29:34;;;;;;;6.70;5.35;;;;;17.60;100544.00;;;;2073716;28;20232;-42
2021/04/09 01:30:42;;;;;;;6.22;5.28;;;;;17.60;100542.00;;;;2074521;28;20228;-43
2021/04/09 01:31:49;;;;;;;7.30;5.32;;;;;17.60;100542.00;;;;2073994;28;20320;-45
2021/04/09 01:32:49;;;;;;;6.38;5.78;;;;;17.60;100535.00;;;;2058406;28;20213;-43
2021/04/09 01:33:51;;;;;;;6.30;5.60;;;;;17.60;100532.00;;;;2060375;28;20575;-42
2021/04/09 01:34:55;;;;;;;6.45;5.70;;;;;17.60;100538.00;;;;2069056;28;20218;-47
2021/04/09 01:35:57;;;;;;;5.75;5.25;;;;;17.60;100537.00;;;;2068415;28;20229;-48
2021/04/09 01:36:59;;;;;;;5.82;5.32;;;;;17.60;100517.00;;;;2071254;28;20228;-43
2021/04/09 01:38:04;;;;;;;6.82;4.95;;;;;17.60;100529.00;;;;2065571;28;20233;-43
2021/04/09 01:39:10;;;;;;;5.60;5.10;;;;;17.60;100527.00;;;;2065599;28;20241;-45
2021/04/09 01:40:14;;;;;;;5.72;5.22;;;;;17.60;100521.00;;;;2074091;28;20218;-45
2021/04/09 01:41:15;;;;;;;5.30;4.80;;;;;17.60;100530.00;;;;2066117;28;20222;-43
2021/04/09 01:42:15;;;;;;;8.00;5.33;;;;;17.60;100545.00;;;;2058165;28;20723;-46
2021/04/09 01:43:16;;;;;;;5.47;4.93;;;;;17.60;100529.00;;;;2065517;28;20829;-43
2021/04/09 01:44:17;;;;;;;7.10;4.88;;;;;17.60;100520.00;;;;2067847;28;20221;-47
2021/04/09 01:45:17;;;;;;;5.70;5.20;;;;;17.60;100519.00;;;;2065644;28;20222;-42
2021/04/09 01:46:18;;;;;;;5.47;5.00;;;;;17.60;100521.00;;;;2068558;28;20702;-42
2021/04/09 01:47:21;;;;;;;5.90;5.30;;;;;17.60;100521.00;;;;2079124;28;20210;-44
2021/04/09 01:48:21;;;;;;;6.30;4.70;;;;;17.50;100510.00;;;;2074183;28;20828;-45
2021/04/09 01:49:22;;;;;;;6.00;5.40;;;;;17.60;100510.00;;;;2064344;28;20222;-43
2021/04/09 01:50:22;;;;;;;5.87;4.87;;;;;17.50;100519.00;;;;2057058;28;20225;-44
2021/04/09 01:51:23;;;;;;;4.83;4.43;;;;;17.50;100516.00;;;;2077171;28;20684;-46
2021/04/09 01:52:23;;;;;;;6.93;5.30;;;;;17.50;100512.00;;;;2064431;28;20217;-45
2021/04/09 01:53:24;;;;;;;5.63;5.00;;;;;17.50;100513.00;;;;2062980;28;20233;-43
2021/04/09 01:54:25;;;;;;;4.77;4.37;;;;;17.50;100516.00;;;;2062842;28;20469;-43
2021/04/09 01:55:25;;;;;;;4.93;4.47;;;;;17.50;100507.00;;;;2061013;28;20249;-42
2021/04/09 01:56:26;;;;;;;5.93;5.27;;;;;17.50;100507.00;;;;2070213;28;21001;-43
2021/04/09 01:57:26;;;;;;;4.80;4.37;;;;;17.50;100509.00;;;;2062290;28;20222;-44
2021/04/09 01:58:27;;;;;;;6.13;5.40;;;;;17.50;100504.00;;;;2066063;28;20702;-47
2021/04/09 01:59:28;;;;;;;5.88;5.38;;;;;17.50;100501.00;;;;2064570;28;20201;-43
2021/04/09 02:00:29;;;;;;;4.90;4.40;;;;;17.50;100494.00;;;;2078250;28;20208;-43
2021/04/09 02:01:30;;;;;;;5.40;4.53;;;;;17.50;100492.00;;;;2074457;28;20298;-43
2021/04/09 02:02:30;;;;;;;5.40;4.90;;;;;17.50;100490.00;;;;2070131;28;20698;-43
2021/04/09 02:03:31;;;;;;;6.10;4.80;;;;;17.50;100486.00;;;;2061221;28;20711;-42
2021/04/09 02:04:31;;;;;;;5.20;4.70;;;;;17.50;100477.00;;;;2063762;28;21251;-45
2021/04/09 02:05:32;;;;;;;6.07;4.70;;;;;17.50;100480.00;;;;2070128;28;20248;-44
2021/04/09 02:06:35;;;;;;;5.63;5.03;;;;;17.50;100482.00;;;;2061537;28;20215;-42
2021/04/09 02:07:35;;;;;;;6.45;4.70;;;;;17.50;100486.00;;;;2075772;28;20347;-42
2021/04/09 02:08:36;;;;;;;5.10;4.60;;;;;17.50;100487.00;;;;2067058;28;20762;-43
2021/04/09 02:09:36;;;;;;;5.60;4.80;;;;;17.50;100481.00;;;;2057808;28;20341;-42
2021/04/09 02:10:37;;;;;;;5.20;4.77;;;;;17.50;100482.00;;;;2074317;28;20213;-42
2021/04/09 02:11:37;;;;;;;5.40;4.37;;;;;17.50;100478.00;;;;2073712;28;20221;-47
2021/04/09 02:12:39;;;;;;;4.87;4.40;;;;;17.50;100479.00;;;;2063623;28;20851;-44
2021/04/09 02:13:39;;;;;;;5.20;4.35;;;;;17.50;100481.00;;;;2050367;28;20214;-42
2021/04/09 02:14:43;;;;;;;4.90;4.40;;;;;17.40;100481.00;;;;2065414;28;20217;-45
2021/04/09 02:15:43;;;;;;;4.90;4.43;;;;;17.50;100474.00;;;;2070883;28;20238;-42
2021/04/09 02:16:43;;;;;;;5.07;4.57;;;;;17.40;100479.00;;;;2074117;28;20585;-44
2021/04/09 02:17:44;;;;;;;5.03;4.53;;;;;17.40;100474.00;;;;2066540;28;20311;-42
2021/04/09 02:18:44;;;;;;;4.70;4.30;;;;;17.40;100467.00;;;;2063881;28;21029;-45
2021/04/09 02:19:44;;;;;;;4.87;4.23;;;;;17.40;100468.00;;;;2071767;28;20302;-43
2021/04/09 02:20:45;;;;;;;4.27;3.87;;;;;17.40;100470.00;;;;2064517;28;20228;-43
2021/04/09 02:21:45;;;;;;;5.40;4.80;;;;;17.40;100469.00;;;;2061984;28;20228;-44
2021/04/09 02:22:46;;;;;;;4.90;4.40;;;;;17.40;100466.00;;;;2074492;28;20221;-43
2021/04/09 02:23:47;;;;;;;4.80;4.30;;;;;17.40;100466.00;;;;2073257;28;20732;-42
2021/04/09 02:24:48;;;;;;;5.47;4.83;;;;;17.40;100466.00;;;;2070573;28;20464;-46
2021/04/09 02:25:49;;;;;;;5.18;4.75;;;;;17.40;100468.00;;;;2065251;28;20212;-43
2021/04/09 02:26:49;;;;;;;4.60;4.20;;;;;17.40;100469.00;;;;2065818;28;20225;-42
2021/04/09 02:27:50;;;;;;;3.93;3.53;;;;;17.40;100471.00;;;;2065638;28;20217;-46
2021/04/09 02:28:50;;;;;;;5.87;5.27;;;;;17.40;100465.00;;;;2065644;28;20310;-43
2021/04/09 02:29:51;;;;;;;4.97;4.57;;;;;17.40;100456.00;;;;2062632;28;20247;-43
2021/04/09 02:31:05;;;;;;;5.30;4.03;;;;;17.40;100460.00;;;;2057177;28;20311;-42
2021/04/09 02:32:06;;;;;;;6.88;4.75;;;;;17.40;100463.00;;;;2071212;28;20706;-46
2021/04/09 02:33:07;;;;;;;4.40;4.00;;;;;17.40;100484.00;;;;2073950;28;20212;-42
2021/04/09 02:34:07;;;;;;;4.50;4.10;;;;;17.40;100467.00;;;;2070339;28;20460;-45
2021/04/09 02:35:09;;;;;;;4.67;4.17;;;;;17.40;100458.00;;;;2067880;28;20217;-43
2021/04/09 02:36:13;;;;;;;5.97;4.07;;;;;17.40;100462.00;;;;2081811;28;20715;-43
2021/04/09 02:37:14;;;;;;;4.82;4.40;;;;;17.40;100461.00;;;;2070165;28;20225;-42
2021/04/09 02:38:14;;;;;;;5.00;4.50;;;;;17.40;100445.00;;;;2057650;28;20224;-46
2021/04/09 02:39:15;;;;;;;5.37;4.60;;;;;17.40;100454.00;;;;2061824;28;20296;-44
2021/04/09 02:40:21;;;;;;;4.82;4.32;;;;;17.40;100448.00;;;;2059062;28;20635;-44
2021/04/09 02:41:22;;;;;;;4.75;4.30;;;;;17.40;100454.00;;;;2066182;28;20221;-49
2021/04/09 02:42:23;;;;;;;5.13;4.53;;;;;17.40;100454.00;;;;2066285;28;20231;-46
2021/04/09 02:43:24;;;;;;;4.47;4.07;;;;;17.40;100449.00;;;;2061474;28;20331;-45
2021/04/09 02:44:24;;;;;;;4.70;4.20;;;;;17.40;100456.00;;;;2063467;28;20258;-47
2021/04/09 02:45:24;;;;;;;4.97;4.37;;;;;17.40;100442.00;;;;2071823;28;20246;-44
2021/04/09 02:46:44;;;;;;;4.60;4.20;;;;;17.30;100443.00;;;;2068314;28;20223;-43
2021/04/09 02:47:44;;;;;;;4.05;3.65;;;;;17.40;100451.00;;;;2063067;28;20230;-42
2021/04/09 02:48:51;;;;;;;4.60;3.97;;;;;17.40;100446.00;;;;2072911;28;20736;-46
2021/04/09 02:50:01;;;;;;;4.63;4.22;;;;;17.30;100446.00;;;;2061352;28;20222;-44
2021/04/09 02:51:05;;;;;;;5.10;4.53;;;;;17.30;100437.00;;;;2059423;28;20261;-47
2021/04/09 02:52:06;;;;;;;4.43;4.03;;;;;17.30;100443.00;;;;2072685;28;20224;-44
2021/04/09 02:53:09;;;;;;;5.20;4.22;;;;;17.30;100439.00;;;;2072083;28;20240;-44
2021/04/09 02:54:10;;;;;;;4.35;3.95;;;;;17.30;100440.00;;;;2072231;28;20307;-43
2021/04/09 02:55:14;;;;;;;4.22;3.83;;;;;17.30;100434.00;;;;2075692;28;20216;-45
2021/04/09 02:56:14;;;;;;;4.55;4.15;;;;;17.30;100443.00;;;;2077362;28;20219;-43
2021/04/09 02:57:14;;;;;;;5.10;4.60;;;;;17.30;100442.00;;;;2076631;28;20738;-46
2021/04/09 02:58:15;;;;;;;4.67;4.17;;;;;17.30;100434.00;;;;2068427;28;20263;-45
2021/04/09 02:59:16;;;;;;;4.00;3.70;;;;;17.30;100436.00;;;;2076669;28;20758;-45
2021/04/09 03:00:16;;;;;;;5.63;4.57;;;;;17.30;100436.00;;;;2068505;28;20993;-43
2021/04/09 03:01:20;;;;;;;4.30;3.97;;;;;17.30;100439.00;;;;2076455;28;20610;-45
2021/04/09 03:02:20;;;;;;;4.78;3.83;;;;;17.30;100433.00;;;;2068958;28;20504;-43
2021/04/09 03:03:21;;;;;;;5.30;4.57;;;;;17.30;100437.00;;;;2068758;28;20217;-47
2021/04/09 03:04:21;;;;;;;4.10;3.70;;;;;17.30;100454.00;;;;2075075;28;20259;-44
2021/04/09 03:05:22;;;;;;;4.13;3.83;;;;;17.30;100430.00;;;;2068979;28;20598;-47
2021/04/09 03:06:22;;;;;;;5.07;4.57;;;;;17.30;100432.00;;;;2069092;28;20776;-45
2021/04/09 03:07:23;;;;;;;4.67;4.10;;;;;17.30;100433.00;;;;2069129;28;20727;-44
2021/04/09 03:08:23;;;;;;;3.63;3.33;;;;;17.30;100430.00;;;;2062103;28;20225;-46
2021/04/09 03:09:24;;;;;;;4.90;3.73;;;;;17.30;100433.00;;;;2068777;28;20679;-43
2021/04/09 03:10:24;;;;;;;4.80;3.90;;;;;17.30;100418.00;;;;2060840;28;20238;-44
2021/04/09 03:11:24;;;;;;;4.37;3.97;;;;;17.30;100421.00;;;;2069360;28;20528;-47
2021/04/09 03:12:25;;;;;;;4.47;4.00;;;;;17.30;100413.00;;;;2069942;28;20621;-47
2021/04/09 03:13:25;;;;;;;4.20;3.80;;;;;17.30;100421.00;;;;2069512;28;20216;-45
2021/04/09 03:14:26;;;;;;;5.83;4.47;;;;;17.00;100419.00;;;;2068696;28;20216;-44
2021/04/09 03:15:39;;;;;;;5.83;4.37;;;;;17.30;100419.00;;;;2059563;28;20232;-44
2021/04/09 03:16:45;;;;;;;4.38;3.97;;;;;17.20;100395.00;;;;2057850;28;20523;-44
2021/04/09 03:18:05;;;;;;;5.43;4.50;;;;;17.30;100410.00;;;;2050173;28;20660;-44
2021/04/09 03:19:06;;;;;;;5.07;4.53;;;;;17.30;100409.00;;;;2066175;28;20659;-44
2021/04/09 03:20:07;;;;;;;4.00;3.60;;;;;16.90;100409.00;;;;2068751;28;20243;-43
2021/04/09 03:21:07;;;;;;;4.95;4.13;;;;;17.30;100418.00;;;;2068534;28;20228;-45
2021/04/09 03:22:09;;;;;;;4.50;4.10;;;;;17.20;100399.00;;;;2066801;28;20513;-43
2021/04/09 03:23:09;;;;;;;5.82;4.18;;;;;17.20;100405.00;;;;2060061;28;20315;-46
2021/04/09 03:24:10;;;;;;;4.60;4.20;;;;;17.20;100399.00;;;;2059676;28;20646;-46
2021/04/09 03:25:10;;;;;;;4.60;4.20;;;;;17.20;100406.00;;;;2068900;28;20226;-45
2021/04/09 03:26:11;;;;;;;4.80;3.77;;;;;17.20;100406.00;;;;2069159;28;20219;-42
2021/04/09 03:27:14;;;;;;;4.73;4.30;;;;;17.20;100402.00;;;;2069270;28;20222;-48
2021/04/09 03:28:15;;;;;;;5.05;4.25;;;;;17.20;100407.00;;;;2068406;28;20244;-46
2021/04/09 03:29:15;;;;;;;4.63;4.23;;;;;17.20;100409.00;;;;2068248;28;20638;-44
2021/04/09 03:30:20;;;;;;;4.83;4.27;;;;;17.20;100414.00;;;;2069422;28;20304;-46
2021/04/09 03:31:20;;;;;;;4.40;3.92;;;;;17.20;100398.00;;;;2069105;28;20694;-44
2021/04/09 03:32:20;;;;;;;6.07;4.50;;;;;17.20;100395.00;;;;2069146;28;20221;-46
2021/04/09 03:33:22;;;;;;;4.40;4.00;;;;;17.20;100398.00;;;;2069549;28;20840;-45
2021/04/09 03:34:22;;;;;;;4.40;4.00;;;;;17.20;100407.00;;;;2067771;28;20279;-44
2021/04/09 03:35:22;;;;;;;3.70;3.40;;;;;17.20;100397.00;;;;2068949;28;20229;-45
2021/04/09 03:36:23;;;;;;;5.30;3.80;;;;;17.20;100401.00;;;;2069281;28;20225;-45
2021/04/09 03:37:23;;;;;;;4.57;4.03;;;;;17.20;100397.00;;;;2068914;28;20229;-44
2021/04/09 03:38:24;;;;;;;3.83;3.50;;;;;17.20;100402.00;;;;2068666;28;20215;-44
2021/04/09 03:39:24;;;;;;;4.30;3.67;;;;;17.20;100391.00;;;;2069255;28;20564;-47
2021/04/09 03:40:24;;;;;;;4.30;3.90;;;;;17.20;100398.00;;;;2068795;28;20259;-43
2021/04/09 03:41:25;;;;;;;5.40;4.10;;;;;17.20;100409.00;;;;2069814;28;20227;-43
2021/04/09 03:42:25;;;;;;;4.60;4.20;;;;;17.20;100393.00;;;;2069635;28;20226;-45
2021/04/09 03:43:26;;;;;;;4.03;3.70;;;;;17.20;100344.00;;;;2069440;28;20250;-45
2021/04/09 03:44:26;;;;;;;4.97;4.57;;;;;17.10;100401.00;;;;2068811;28;20670;-47
2021/04/09 03:45:26;;;;;;;4.57;4.17;;;;;17.20;100393.00;;;;2069630;28;20243;-46
2021/04/09 03:46:27;;;;;;;4.43;4.03;;;;;17.10;100388.00;;;;2072646;28;20299;-44
2021/04/09 03:47:27;;;;;;;4.30;3.97;;;;;17.20;100392.00;;;;2073112;28;20743;-48
2021/04/09 03:48:27;;;;;;;4.93;4.03;;;;;17.20;100389.00;;;;2072276;28;20217;-44
2021/04/09 03:49:28;;;;;;;6.27;3.80;;;;;17.20;100330.00;;;;2071160;28;20704;-45
2021/04/09 03:50:28;;;;;;;4.43;4.00;;;;;17.20;100391.00;;;;2069475;28;20291;-46
2021/04/09 03:51:30;;;;;;;4.50;4.10;;;;;17.10;100393.00;;;;2069447;28;20215;-44
2021/04/09 03:52:31;;;;;;;5.13;4.30;;;;;17.20;100392.00;;;;2074117;28;20296;-43
2021/04/09 03:53:31;;;;;;;4.40;4.00;;;;;17.10;100390.00;;;;2076759;28;20294;-47
2021/04/09 03:54:31;;;;;;;5.47;3.70;;;;;17.10;100393.00;;;;2077337;28;20628;-47
2021/04/09 03:55:32;;;;;;;3.97;3.57;;;;;17.10;100391.00;;;;2077792;28;20757;-47
2021/04/09 03:56:32;;;;;;;4.00;3.60;;;;;17.10;100391.00;;;;2077713;28;20216;-47
2021/04/09 03:57:33;;;;;;;4.10;3.80;;;;;17.10;100397.00;;;;2077599;28;20260;-45
2021/04/09 03:58:33;;;;;;;4.53;4.10;;;;;17.10;100397.00;;;;2077738;28;20280;-42
2021/04/09 03:59:33;;;;;;;5.03;3.70;;;;;17.10;100393.00;;;;2077713;28;20269;-43
2021/04/09 04:00:34;;;;;;;4.30;3.80;;;;;17.10;100398.00;;;;2077516;28;20211;-43
2021/04/09 04:01:34;;;;;;;4.10;3.70;;;;;17.10;100388.00;;;;2074788;28;21225;-43
2021/04/09 04:02:34;;;;;;;4.87;3.97;;;;;17.10;100393.00;;;;2085230;28;20215;-45
2021/04/09 04:03:35;;;;;;;4.10;3.70;;;;;17.10;100400.00;;;;2077062;28;20222;-46
2021/04/09 04:04:35;;;;;;;6.67;4.20;;;;;17.10;100396.00;;;;2076352;28;20218;-43
2021/04/09 04:05:36;;;;;;;4.77;4.00;;;;;17.10;100385.00;;;;2077515;28;20573;-43
2021/04/09 04:06:36;;;;;;;4.20;3.80;;;;;17.10;100391.00;;;;2077720;28;20204;-45
2021/04/09 04:07:36;;;;;;;4.03;3.20;;;;;17.10;100391.00;;;;2075534;28;20215;-45
2021/04/09 04:08:37;;;;;;;4.53;4.00;;;;;17.10;100390.00;;;;2069304;28;20219;-47
2021/04/09 04:09:37;;;;;;;4.43;3.50;;;;;17.10;100393.00;;;;2069658;28;20235;-44
2021/04/09 04:10:38;;;;;;;4.07;3.63;;;;;17.10;100378.00;;;;2069717;28;20232;-43
2021/04/09 04:11:38;;;;;;;3.83;3.53;;;;;17.10;100384.00;;;;2072960;28;20303;-44
2021/04/09 04:12:38;;;;;;;4.57;3.87;;;;;17.10;100390.00;;;;2073876;28;20223;-43
2021/04/09 04:13:39;;;;;;;3.90;3.53;;;;;17.10;100382.00;;;;2076841;28;20224;-44
2021/04/09 04:14:39;;;;;;;4.60;3.80;;;;;17.10;100390.00;;;;2077286;28;20702;-46
2021/04/09 04:15:39;;;;;;;4.20;3.80;;;;;17.00;100382.00;;;;2077713;28;20215;-43
2021/04/09 04:16:40;;;;;;;5.63;3.73;;;;;17.00;100374.00;;;;2072860;28;20278;-43
2021/04/09 04:17:40;;;;;;;4.57;4.17;;;;;17.10;100372.00;;;;2072664;28;20252;-44
2021/04/09 04:18:40;;;;;;;4.13;3.70;;;;;17.10;100371.00;;;;2070524;28;20210;-47
2021/04/09 04:19:41;;;;;;;4.13;3.60;;;;;17.10;100383.00;;;;2069070;28;20221;-46
2021/04/09 04:20:41;;;;;;;4.03;3.63;;;;;17.10;100380.00;;;;2069536;28;20208;-45
2021/04/09 04:21:41;;;;;;;4.80;4.13;;;;;17.10;100378.00;;;;2069705;28;20621;-46
2021/04/09 04:22:42;;;;;;;4.00;3.60;;;;;17.00;100363.00;;;;2069500;28;20212;-44
2021/04/09 04:23:42;;;;;;;5.40;3.83;;;;;17.00;100378.00;;;;2068467;28;20227;-43
2021/04/09 04:24:43;;;;;;;6.03;4.10;;;;;17.00;100372.00;;;;2069259;28;20291;-44
2021/04/09 04:25:43;;;;;;;4.00;3.70;;;;;17.00;100383.00;;;;2069569;28;20208;-44
2021/04/09 04:26:43;;;;;;;4.83;4.10;;;;;17.00;100374.00;;;;2069473;28;20214;-45
2021/04/09 04:27:44;;;;;;;3.40;3.10;;;;;17.10;100376.00;;;;2069540;28;20708;-45
2021/04/09 04:28:45;;;;;;;3.97;3.57;;;;;17.10;100376.00;;;;2069399;28;20248;-44
2021/04/09 04:29:45;;;;;;;3.77;3.37;;;;;17.00;100372.00;;;;2069562;28;20223;-45
2021/04/09 04:30:51;;;;;;;4.37;3.60;;;;;17.00;100376.00;;;;2069553;28;20217;-47
2021/04/09 04:31:52;;;;;;;4.63;3.80;;;;;17.00;100379.00;;;;2075564;28;20686;-45
2021/04/09 04:32:52;;;;;;;3.87;3.57;;;;;17.00;100374.00;;;;2078992;28;20383;-46
2021/04/09 04:33:52;;;;;;;6.23;4.00;;;;;17.00;100365.00;;;;2078205;28;20696;-43
2021/04/09 04:34:53;;;;;;;4.40;3.83;;;;;17.00;100371.00;;;;2079241;28;20850;-45
2021/04/09 04:35:53;;;;;;;5.00;4.20;;;;;17.00;100369.00;;;;2079436;28;20219;-43
2021/04/09 04:36:54;;;;;;;3.93;3.47;;;;;17.00;100372.00;;;;2075238;28;20279;-44
2021/04/09 04:37:54;;;;;;;4.27;3.87;;;;;17.00;100377.00;;;;2078875;28;20222;-43
2021/04/09 04:38:54;;;;;;;4.30;3.90;;;;;17.00;100374.00;;;;2079417;28;20221;-44
2021/04/09 04:39:55;;;;;;;3.97;3.60;;;;;17.00;100371.00;;;;2079361;28;20237;-44
2021/04/09 04:40:56;;;;;;;4.47;4.00;;;;;17.00;100370.00;;;;2079177;28;20257;-44
2021/04/09 04:41:56;;;;;;;3.72;3.42;;;;;17.00;100367.00;;;;2078537;28;20219;-43
2021/04/09 04:42:57;;;;;;;4.30;3.90;;;;;17.00;100368.00;;;;2078492;28;20222;-44
2021/04/09 04:43:57;;;;;;;3.63;3.33;;;;;17.00;100361.00;;;;2078287;28;20586;-43
2021/04/09 04:44:58;;;;;;;4.40;4.00;;;;;17.00;100366.00;;;;2079122;28;20211;-44
2021/04/09 04:45:58;;;;;;;4.77;3.47;;;;;17.00;100364.00;;;;2077334;28;20281;-45
2021/04/09 04:46:58;;;;;;;4.53;4.10;;;;;17.00;100375.00;;;;2073286;28;20205;-43
2021/04/09 04:47:59;;;;;;;4.00;3.70;;;;;17.00;100370.00;;;;2072733;28;20213;-45
2021/04/09 04:48:59;;;;;;;5.27;3.53;;;;;17.00;100372.00;;;;2072131;28;20382;-43
2021/04/09 04:49:59;;;;;;;4.20;3.80;;;;;17.00;100369.00;;;;2070648;28;20199;-43
2021/04/09 04:51:00;;;;;;;3.97;3.57;;;;;17.00;100360.00;;;;2069301;28;20228;-43
2021/04/09 04:52:01;;;;;;;4.40;3.90;;;;;17.00;100368.00;;;;2070144;28;20216;-43
2021/04/09 04:53:01;;;;;;;5.40;3.70;;;;;17.00;100369.00;;;;2070191;28;20467;-43
2021/04/09 04:54:02;;;;;;;4.60;4.00;;;;;17.00;100366.00;;;;2069763;28;20211;-43
2021/04/09 04:55:03;;;;;;;4.20;3.80;;;;;17.00;100360.00;;;;2070647;28;20255;-47
2021/04/09 04:56:04;;;;;;;4.50;3.80;;;;;17.00;100359.00;;;;2071106;28;20278;-43
2021/04/09 04:57:04;;;;;;;4.23;3.60;;;;;17.00;100364.00;;;;2075737;28;20945;-43
2021/04/09 04:58:04;;;;;;;3.90;3.60;;;;;17.00;100291.00;;;;2079081;28;20229;-44
2021/04/09 04:59:05;;;;;;;4.10;3.70;;;;;17.00;100365.00;;;;2078972;28;20661;-44
2021/04/09 05:00:06;;;;;;;4.27;3.87;;;;;17.00;100350.00;;;;2078921;28;20219;-47
2021/04/09 05:01:06;;;;;;;5.83;4.13;;;;;17.00;100355.00;;;;2078950;28;20577;-46
2021/04/09 05:02:07;;;;;;;4.80;4.20;;;;;17.00;100361.00;;;;2079406;28;20963;-44
2021/04/09 05:03:07;;;;;;;5.37;4.30;;;;;17.00;100363.00;;;;2078950;28;20721;-47
2021/04/09 05:04:07;;;;;;;4.50;4.10;;;;;17.00;100353.00;;;;2078275;28;20218;-44
2021/04/09 05:05:08;;;;;;;4.43;4.03;;;;;17.00;100362.00;;;;2078741;28;20274;-43
2021/04/09 05:06:09;;;;;;;4.17;3.77;;;;;17.00;100350.00;;;;2078825;28;20223;-44